Time;durP1;ratioP1;P1;durP2;ratioP2;P2;SDS_P1;SDS_P2;PMS_P1;PMS_P2;Temp;Humidity;BMP_temperature;BMP_pressure;BME280_temperature;BME280_humidity;BME280_pressure;Samples;Min_cycle;Max_cycle;Signal;HPM_P1;HPM_P2
2023/05/06 00:01:33;;;;;;;4.23;2.13;;;;;;;;;;5010459;28;20925;-69
2023/05/06 00:04:00;;;;;;;9.30;4.77;;;;;;;;;;5010332;28;20435;-68
2023/05/06 00:06:27;;;;;;;6.30;4.17;;;;;;;;;;5028025;28;20435;-68
2023/05/06 00:08:54;;;;;;;3.77;2.20;;;;;;;;;;5028095;28;20480;-68
2023/05/06 00:11:21;;;;;;;5.30;2.50;;;;;;;;;;5026830;28;20445;-68
2023/05/06 00:13:48;;;;;;;6.70;2.60;;;;;;;;;;5027946;28;20469;-68
2023/05/06 00:16:14;;;;;;;5.47;2.77;;;;;;;;;;5028131;28;20465;-68
2023/05/06 00:18:41;;;;;;;5.47;2.70;;;;;;;;;;5010559;28;20434;-68
2023/05/06 00:21:08;;;;;;;4.20;2.17;;;;;;;;;;5010565;28;20501;-68
2023/05/06 00:23:35;;;;;;;5.93;2.77;;;;;;;;;;5027796;28;20468;-68
2023/05/06 00:26:01;;;;;;;9.07;2.60;;;;;;;;;;5027871;28;20465;-69
2023/05/06 00:28:29;;;;;;;8.47;2.60;;;;;;;;;;5012104;28;20466;-69
2023/05/06 00:30:56;;;;;;;7.83;2.87;;;;;;;;;;4990740;28;20477;-68
2023/05/06 00:33:22;;;;;;;4.80;2.83;;;;;;;;;;5008347;28;21341;-68
2023/05/06 00:35:51;;;;;;;6.03;2.80;;;;;;;;;;4990505;28;20489;-69
2023/05/06 00:38:18;;;;;;;6.87;2.27;;;;;;;;;;5008173;28;20529;-68
2023/05/06 00:40:45;;;;;;;6.60;2.60;;;;;;;;;;5019850;28;20430;-68
2023/05/06 00:43:13;;;;;;;7.63;2.80;;;;;;;;;;5026963;28;20433;-68
2023/05/06 00:45:40;;;;;;;4.77;2.60;;;;;;;;;;5028027;28;20452;-69
2023/05/06 00:48:07;;;;;;;5.47;3.07;;;;;;;;;;4994115;28;20459;-68
2023/05/06 00:50:34;;;;;;;5.07;2.33;;;;;;;;;;5027551;28;20476;-68
2023/05/06 00:53:01;;;;;;;7.03;2.47;;;;;;;;;;5010181;28;20476;-68
2023/05/06 00:55:28;;;;;;;9.97;3.17;;;;;;;;;;5010045;28;21117;-68
2023/05/06 00:57:54;;;;;;;5.47;2.87;;;;;;;;;;4993954;28;20457;-68
2023/05/06 01:00:21;;;;;;;8.03;3.13;;;;;;;;;;4994037;28;20423;-68
2023/05/06 01:02:49;;;;;;;5.63;3.00;;;;;;;;;;4987997;28;20443;-69
2023/05/06 01:05:21;;;;;;;5.73;2.87;;;;;;;;;;5007855;28;20485;-68
2023/05/06 01:07:48;;;;;;;6.20;2.70;;;;;;;;;;4990529;28;20435;-68
2023/05/06 01:10:24;;;;;;;7.17;2.80;;;;;;;;;;4990121;28;20479;-68
2023/05/06 01:13:11;;;;;;;4.47;2.67;;;;;;;;;;5011161;28;20445;-68
2023/05/06 01:15:45;;;;;;;6.73;2.80;;;;;;;;;;5011014;28;20438;-68
2023/05/06 01:18:15;;;;;;;4.90;2.73;;;;;;;;;;4994410;28;20443;-68
2023/05/06 01:20:46;;;;;;;5.77;3.30;;;;;;;;;;5010959;28;20562;-68
2023/05/06 01:23:13;;;;;;;7.23;3.10;;;;;;;;;;5027267;28;20531;-69
2023/05/06 01:25:40;;;;;;;6.00;3.60;;;;;;;;;;4994904;28;20458;-69
2023/05/06 01:28:09;;;;;;;7.40;3.90;;;;;;;;;;5030602;28;20519;-69
2023/05/06 01:30:43;;;;;;;9.47;3.90;;;;;;;;;;5012785;28;21004;-68
2023/05/06 01:33:12;;;;;;;5.97;3.30;;;;;;;;;;5013704;28;20426;-68
2023/05/06 01:35:48;;;;;;;7.97;3.13;;;;;;;;;;4996493;28;20445;-69
2023/05/06 01:38:16;;;;;;;5.60;2.97;;;;;;;;;;5029546;28;20468;-68
2023/05/06 01:40:43;;;;;;;9.27;3.13;;;;;;;;;;4980121;28;20500;-68
2023/05/06 02:18:40;;;;;;;4.90;2.80;;;;;;;;;;4992403;28;20471;-69
2023/05/06 02:21:08;;;;;;;4.83;2.87;;;;;;;;;;4992454;28;20427;-69
2023/05/06 02:23:35;;;;;;;6.43;3.13;;;;;;;;;;5008746;28;20525;-69
2023/05/06 02:26:03;;;;;;;8.70;3.20;;;;;;;;;;5009708;28;20435;-69
2023/05/06 02:28:35;;;;;;;7.73;3.33;;;;;;;;;;4993317;28;20408;-69
2023/05/06 02:31:02;;;;;;;5.80;3.30;;;;;;;;;;5022391;28;20447;-69
2023/05/06 02:33:28;;;;;;;6.30;2.83;;;;;;;;;;5030041;28;20443;-69
2023/05/06 02:35:55;;;;;;;7.03;3.03;;;;;;;;;;5011525;28;20497;-69
2023/05/06 02:38:22;;;;;;;5.80;2.90;;;;;;;;;;5011657;28;20481;-69
2023/05/06 02:40:48;;;;;;;7.47;3.23;;;;;;;;;;5029332;28;20411;-69
2023/05/06 02:43:18;;;;;;;6.23;3.03;;;;;;;;;;5029347;28;20426;-69
2023/05/06 02:45:44;;;;;;;7.47;3.23;;;;;;;;;;5029559;28;20561;-69
2023/05/06 02:48:37;;;;;;;7.10;2.80;;;;;;;;;;5008346;28;20455;-69
2023/05/06 02:51:05;;;;;;;9.07;3.50;;;;;;;;;;4992538;28;20542;-69
2023/05/06 02:53:31;;;;;;;6.30;3.00;;;;;;;;;;4991881;28;20449;-69
2023/05/06 02:55:58;;;;;;;9.40;3.17;;;;;;;;;;4992397;28;20439;-69
2023/05/06 02:58:25;;;;;;;6.57;3.10;;;;;;;;;;4992025;28;20477;-69
2023/05/06 03:00:51;;;;;;;5.43;3.13;;;;;;;;;;5009752;28;20434;-69
2023/05/06 03:03:18;;;;;;;4.87;2.60;;;;;;;;;;4991622;28;20570;-70
2023/05/06 03:05:45;;;;;;;6.03;2.43;;;;;;;;;;4987023;28;20549;-69
2023/05/06 03:08:12;;;;;;;5.77;2.53;;;;;;;;;;4991849;28;20427;-69
2023/05/06 03:10:39;;;;;;;9.23;2.60;;;;;;;;;;5007864;28;20556;-69
2023/05/06 03:13:06;;;;;;;6.23;2.60;;;;;;;;;;5008071;28;20443;-69
2023/05/06 03:15:34;;;;;;;5.80;2.50;;;;;;;;;;5009512;28;20830;-69
2023/05/06 03:18:00;;;;;;;5.03;2.50;;;;;;;;;;4991962;28;20822;-69
2023/05/06 03:20:28;;;;;;;4.70;2.50;;;;;;;;;;4991402;28;20501;-69
2023/05/06 03:22:57;;;;;;;3.77;2.67;;;;;;;;;;4991074;28;20478;-69
2023/05/06 03:25:24;;;;;;;4.90;2.23;;;;;;;;;;4991618;28;20449;-69
2023/05/06 03:27:52;;;;;;;5.63;2.93;;;;;;;;;;4991435;28;20498;-69
2023/05/06 03:30:21;;;;;;;4.43;2.40;;;;;;;;;;4991297;28;20483;-69
2023/05/06 03:32:51;;;;;;;4.67;2.63;;;;;;;;;;5008536;28;20529;-69
2023/05/06 03:35:25;;;;;;;6.30;2.23;;;;;;;;;;5010547;28;20809;-69
2023/05/06 03:37:55;;;;;;;3.57;2.27;;;;;;;;;;5043752;28;20442;-69
2023/05/06 03:40:25;;;;;;;7.00;2.60;;;;;;;;;;5001406;28;20955;-69
2023/05/06 03:42:53;;;;;;;4.53;2.60;;;;;;;;;;5009911;28;20507;-69
2023/05/06 03:45:21;;;;;;;4.87;2.60;;;;;;;;;;5011385;28;20430;-69
2023/05/06 03:47:48;;;;;;;5.37;2.37;;;;;;;;;;4994439;28;20453;-69
2023/05/06 03:50:15;;;;;;;3.77;2.20;;;;;;;;;;4994511;28;20818;-69
2023/05/06 03:52:43;;;;;;;2.93;1.77;;;;;;;;;;4994249;28;20452;-69
2023/05/06 03:55:10;;;;;;;6.40;2.53;;;;;;;;;;5010891;28;20430;-69
2023/05/06 03:57:38;;;;;;;5.13;2.70;;;;;;;;;;5006065;28;20449;-69
2023/05/06 04:00:06;;;;;;;6.00;2.20;;;;;;;;;;5005250;28;20482;-68
2023/05/06 04:02:41;;;;;;;4.53;2.47;;;;;;;;;;5007473;28;20496;-69
2023/05/06 04:05:13;;;;;;;4.20;2.33;;;;;;;;;;4991146;28;20555;-69
2023/05/06 04:07:40;;;;;;;4.87;2.30;;;;;;;;;;4990609;28;20446;-69
2023/05/06 04:10:07;;;;;;;5.60;2.30;;;;;;;;;;5008453;28;20477;-69
2023/05/06 04:12:35;;;;;;;5.23;2.47;;;;;;;;;;4990986;28;20458;-69
2023/05/06 04:15:03;;;;;;;6.03;1.93;;;;;;;;;;4990875;28;20478;-69
2023/05/06 04:17:30;;;;;;;5.87;2.43;;;;;;;;;;4990033;28;20442;-69
2023/05/06 04:19:57;;;;;;;4.37;1.97;;;;;;;;;;5007218;28;20445;-69
2023/05/06 04:22:23;;;;;;;5.90;2.03;;;;;;;;;;5006829;28;20481;-69
2023/05/06 04:24:51;;;;;;;5.10;2.47;;;;;;;;;;4990687;28;20620;-69
2023/05/06 04:27:18;;;;;;;6.00;2.07;;;;;;;;;;5007336;28;20478;-68
2023/05/06 04:29:45;;;;;;;4.70;2.20;;;;;;;;;;5007036;28;20493;-69
2023/05/06 04:32:13;;;;;;;5.30;2.07;;;;;;;;;;5006828;28;20549;-69
2023/05/06 04:34:40;;;;;;;4.13;2.30;;;;;;;;;;4990932;28;20439;-69
2023/05/06 04:37:09;;;;;;;3.67;2.00;;;;;;;;;;4990464;28;20443;-68
2023/05/06 04:39:45;;;;;;;2.87;1.93;;;;;;;;;;4994011;28;20457;-68
2023/05/06 04:42:13;;;;;;;3.27;1.90;;;;;;;;;;5011187;28;20434;-69
2023/05/06 04:44:47;;;;;;;21.50;2.20;;;;;;;;;;4994975;28;20852;-68
2023/05/06 04:47:21;;;;;;;5.47;2.07;;;;;;;;;;4997711;28;20448;-69
2023/05/06 04:49:50;;;;;;;3.47;2.03;;;;;;;;;;4997612;28;20477;-68
2023/05/06 04:52:17;;;;;;;3.53;1.83;;;;;;;;;;5012755;28;20462;-68
2023/05/06 04:54:43;;;;;;;7.37;2.10;;;;;;;;;;5030298;28;20449;-68
2023/05/06 04:57:11;;;;;;;5.70;2.13;;;;;;;;;;5014326;28;20491;-68
2023/05/06 04:59:42;;;;;;;3.60;1.97;;;;;;;;;;4997741;28;20456;-68
2023/05/06 05:02:10;;;;;;;4.37;2.07;;;;;;;;;;5031045;28;20529;-68
2023/05/06 05:04:40;;;;;;;4.20;1.90;;;;;;;;;;5013220;28;20446;-68
2023/05/06 05:07:07;;;;;;;4.50;2.00;;;;;;;;;;5013142;28;20454;-68
2023/05/06 05:09:34;;;;;;;2.70;1.90;;;;;;;;;;4981440;28;20474;-68
2023/05/06 05:12:01;;;;;;;4.27;2.00;;;;;;;;;;5012642;28;20191;-68
2023/05/06 05:14:35;;;;;;;5.67;1.90;;;;;;;;;;5013671;28;20195;-67
2023/05/06 05:17:02;;;;;;;5.23;2.03;;;;;;;;;;5013339;28;20441;-68
2023/05/06 05:19:28;;;;;;;6.10;2.30;;;;;;;;;;5031083;28;20481;-68
2023/05/06 05:21:55;;;;;;;6.23;1.93;;;;;;;;;;5013158;28;20474;-68
2023/05/06 05:24:24;;;;;;;8.00;2.17;;;;;;;;;;5013518;28;20253;-68
2023/05/06 05:26:50;;;;;;;5.87;2.20;;;;;;;;;;5013062;28;20195;-68
2023/05/06 05:29:21;;;;;;;4.87;2.00;;;;;;;;;;5013267;28;20452;-68
2023/05/06 05:31:48;;;;;;;3.53;1.73;;;;;;;;;;5030871;28;20925;-67
2023/05/06 05:34:14;;;;;;;2.67;1.70;;;;;;;;;;5012358;28;21003;-69
2023/05/06 05:36:41;;;;;;;5.70;1.80;;;;;;;;;;4995663;28;20195;-67
2023/05/06 05:39:11;;;;;;;4.67;1.87;;;;;;;;;;4997298;28;20491;-68
2023/05/06 05:41:42;;;;;;;3.10;1.73;;;;;;;;;;4987243;28;20192;-68
2023/05/06 05:44:09;;;;;;;3.53;1.80;;;;;;;;;;5029165;28;20195;-68
2023/05/06 05:46:38;;;;;;;4.53;2.10;;;;;;;;;;5013046;28;20440;-68
2023/05/06 05:49:05;;;;;;;3.83;1.67;;;;;;;;;;5013881;28;20462;-69
2023/05/06 05:51:32;;;;;;;4.87;1.80;;;;;;;;;;5016800;28;20478;-68
2023/05/06 05:54:02;;;;;;;5.90;2.17;;;;;;;;;;5028410;28;20289;-68
2023/05/06 05:56:29;;;;;;;3.57;1.80;;;;;;;;;;5030139;28;20187;-68
2023/05/06 05:58:57;;;;;;;3.87;1.90;;;;;;;;;;5010760;28;20195;-70
2023/05/06 06:01:24;;;;;;;5.37;1.93;;;;;;;;;;5029435;28;20192;-69
2023/05/06 06:03:52;;;;;;;2.60;1.60;;;;;;;;;;5044894;28;20204;-68
2023/05/06 06:06:21;;;;;;;2.33;1.60;;;;;;;;;;5009299;28;20191;-69
2023/05/06 06:08:48;;;;;;;10.23;2.27;;;;;;;;;;4994996;28;20199;-68
2023/05/06 06:11:15;;;;;;;2.77;1.90;;;;;;;;;;5011266;28;20222;-69
2023/05/06 06:13:43;;;;;;;3.47;1.70;;;;;;;;;;5045355;28;20245;-68
2023/05/06 06:16:11;;;;;;;5.23;1.67;;;;;;;;;;5029955;28;20206;-69
2023/05/06 06:18:39;;;;;;;6.13;1.50;;;;;;;;;;5012295;28;20195;-68
2023/05/06 06:21:06;;;;;;;7.57;1.80;;;;;;;;;;4996031;28;20217;-69
2023/05/06 06:23:34;;;;;;;4.00;1.60;;;;;;;;;;5010623;28;20227;-69
2023/05/06 06:26:01;;;;;;;1.60;1.40;;;;;;;;;;4995861;28;20381;-69
2023/05/06 06:28:28;;;;;;;3.43;1.70;;;;;;;;;;5029899;28;20194;-68
2023/05/06 06:30:55;;;;;;;5.17;1.93;;;;;;;;;;5029648;28;20692;-68
2023/05/06 06:33:22;;;;;;;5.47;1.80;;;;;;;;;;5032084;28;20195;-68
2023/05/06 06:35:49;;;;;;;3.23;1.60;;;;;;;;;;5011515;28;20226;-69
2023/05/06 06:38:16;;;;;;;3.03;1.53;;;;;;;;;;5028747;28;20254;-69
2023/05/06 06:40:43;;;;;;;4.30;1.80;;;;;;;;;;5023761;28;20202;-68
2023/05/06 06:43:10;;;;;;;3.13;1.83;;;;;;;;;;5028657;28;20619;-68
2023/05/06 06:45:59;;;;;;;3.87;1.50;;;;;;;;;;5010798;28;20721;-69
2023/05/06 06:48:26;;;;;;;3.73;1.60;;;;;;;;;;5010307;28;20180;-69
2023/05/06 06:50:53;;;;;;;3.67;1.67;;;;;;;;;;5027834;28;20230;-69
2023/05/06 06:53:20;;;;;;;2.67;1.33;;;;;;;;;;5010153;28;20199;-68
2023/05/06 06:55:47;;;;;;;4.90;1.53;;;;;;;;;;5021300;28;20192;-68
2023/05/06 06:58:13;;;;;;;4.53;1.57;;;;;;;;;;5028260;28;20206;-68
2023/05/06 07:00:42;;;;;;;4.40;1.60;;;;;;;;;;5000313;28;20748;-68
2023/05/06 07:03:09;;;;;;;5.60;1.60;;;;;;;;;;5025386;28;20187;-66
2023/05/06 07:05:36;;;;;;;5.00;1.77;;;;;;;;;;5007868;28;20219;-66
2023/05/06 07:08:03;;;;;;;6.77;1.70;;;;;;;;;;5024639;28;20200;-67
2023/05/06 07:10:30;;;;;;;3.73;1.70;;;;;;;;;;5024541;28;20215;-67
2023/05/06 07:12:57;;;;;;;3.63;1.73;;;;;;;;;;5019329;28;20278;-66
2023/05/06 07:15:24;;;;;;;3.50;1.80;;;;;;;;;;5023399;28;20662;-68
2023/05/06 07:17:54;;;;;;;4.10;1.80;;;;;;;;;;5006980;28;20225;-68
2023/05/06 07:20:21;;;;;;;6.03;1.93;;;;;;;;;;5023328;28;20198;-67
2023/05/06 07:22:49;;;;;;;4.10;2.00;;;;;;;;;;5023740;28;20215;-68
2023/05/06 07:25:16;;;;;;;4.53;1.90;;;;;;;;;;5025318;28;20213;-67
2023/05/06 07:27:43;;;;;;;3.60;1.67;;;;;;;;;;5008303;28;20183;-67
2023/05/06 07:30:10;;;;;;;2.43;1.20;;;;;;;;;;5029172;28;20194;-67
2023/05/06 07:32:39;;;;;;;5.70;1.70;;;;;;;;;;5029313;28;20187;-67
2023/05/06 07:35:06;;;;;;;2.70;1.50;;;;;;;;;;5028573;28;20199;-66
2023/05/06 07:37:33;;;;;;;3.63;1.20;;;;;;;;;;5025626;28;20730;-66
2023/05/06 07:40:00;;;;;;;2.60;1.40;;;;;;;;;;5018000;28;20235;-68
2023/05/06 07:42:27;;;;;;;3.17;1.40;;;;;;;;;;5025760;28;20203;-67
2023/05/06 07:44:53;;;;;;;2.67;1.50;;;;;;;;;;5027649;28;20219;-67
2023/05/06 07:47:27;;;;;;;3.17;1.50;;;;;;;;;;5020393;28;20223;-67
2023/05/06 07:49:54;;;;;;;7.63;1.60;;;;;;;;;;5013689;28;20192;-67
2023/05/06 07:52:21;;;;;;;3.17;1.30;;;;;;;;;;5029897;28;20293;-67
2023/05/06 07:54:48;;;;;;;5.83;1.37;;;;;;;;;;5031261;28;20241;-68
2023/05/06 07:57:15;;;;;;;4.43;1.40;;;;;;;;;;5031408;28;20655;-67
2023/05/06 07:59:42;;;;;;;4.13;1.40;;;;;;;;;;5030842;28;20192;-67
2023/05/06 08:02:09;;;;;;;2.80;1.30;;;;;;;;;;5022895;28;20212;-67
2023/05/06 08:04:36;;;;;;;4.40;1.50;;;;;;;;;;5027954;28;20183;-68
2023/05/06 08:07:03;;;;;;;3.77;1.23;;;;;;;;;;5036647;28;20187;-68
2023/05/06 08:09:31;;;;;;;3.73;1.50;;;;;;;;;;5029396;28;20183;-67
2023/05/06 08:11:58;;;;;;;4.30;1.60;;;;;;;;;;5030281;28;20682;-67
2023/05/06 08:14:25;;;;;;;4.33;1.40;;;;;;;;;;5030691;28;20226;-67
2023/05/06 08:16:55;;;;;;;2.90;1.60;;;;;;;;;;5027699;28;20188;-66
2023/05/06 08:19:21;;;;;;;4.20;1.40;;;;;;;;;;5029057;28;20192;-66
2023/05/06 08:21:49;;;;;;;3.60;1.67;;;;;;;;;;5032693;28;20223;-67
2023/05/06 08:24:16;;;;;;;5.63;1.60;;;;;;;;;;5033757;28;20270;-67
2023/05/06 08:26:45;;;;;;;3.20;1.93;;;;;;;;;;5035997;28;20196;-68
2023/05/06 08:29:12;;;;;;;5.53;2.07;;;;;;;;;;5016597;28;20246;-66
2023/05/06 08:31:39;;;;;;;4.43;1.70;;;;;;;;;;5017068;28;20625;-66
2023/05/06 08:34:06;;;;;;;2.70;1.80;;;;;;;;;;5032938;28;20589;-67
2023/05/06 08:36:34;;;;;;;4.13;1.40;;;;;;;;;;5028836;28;20696;-66
2023/05/06 08:39:01;;;;;;;3.23;1.70;;;;;;;;;;5034874;28;20279;-66
2023/05/06 08:41:27;;;;;;;4.27;1.43;;;;;;;;;;5032253;28;20618;-66
2023/05/06 08:43:54;;;;;;;3.00;1.77;;;;;;;;;;5015937;28;20291;-66
2023/05/06 08:46:21;;;;;;;5.20;1.70;;;;;;;;;;4992117;28;20282;-66
2023/05/06 08:48:48;;;;;;;5.50;2.37;;;;;;;;;;5006710;28;20555;-67
2023/05/06 08:51:15;;;;;;;4.30;2.00;;;;;;;;;;4991321;28;20291;-68
2023/05/06 08:53:46;;;;;;;3.03;1.70;;;;;;;;;;5039340;28;20182;-66
2023/05/06 08:56:12;;;;;;;2.53;1.37;;;;;;;;;;5016538;28;20788;-65
2023/05/06 08:58:39;;;;;;;3.43;1.50;;;;;;;;;;5016322;28;20191;-65
2023/05/06 09:01:07;;;;;;;3.60;1.40;;;;;;;;;;5016320;28;20188;-65
2023/05/06 09:03:34;;;;;;;6.17;1.50;;;;;;;;;;5034288;28;20221;-65
2023/05/06 09:06:02;;;;;;;2.97;1.60;;;;;;;;;;5033976;28;20187;-65
2023/05/06 09:08:29;;;;;;;2.90;1.63;;;;;;;;;;5033224;28;20222;-65
2023/05/06 09:10:57;;;;;;;3.73;2.10;;;;;;;;;;5019061;28;20211;-65
2023/05/06 09:13:24;;;;;;;10.73;4.43;;;;;;;;;;5005201;28;20191;-65
2023/05/06 09:15:52;;;;;;;14.60;5.50;;;;;;;;;;5031875;28;20226;-67
2023/05/06 09:18:18;;;;;;;14.93;5.43;;;;;;;;;;5015143;28;20218;-66
2023/05/06 09:20:46;;;;;;;3.23;2.33;;;;;;;;;;5024861;28;20192;-69
2023/05/06 09:23:13;;;;;;;9.23;5.07;;;;;;;;;;5009571;28;20242;-54
2023/05/06 09:25:40;;;;;;;6.90;3.73;;;;;;;;;;5008067;28;20215;-54
2023/05/06 09:28:08;;;;;;;4.17;2.07;;;;;;;;;;5008699;28;20755;-55
2023/05/06 09:30:42;;;;;;;3.63;1.80;;;;;;;;;;5009172;28;20192;-57
2023/05/06 09:33:08;;;;;;;4.27;2.50;;;;;;;;;;4991798;28;20639;-55
2023/05/06 09:35:39;;;;;;;3.67;1.40;;;;;;;;;;5009488;28;20196;-57
2023/05/06 09:38:06;;;;;;;3.33;1.50;;;;;;;;;;5007096;28;20246;-56
2023/05/06 09:40:36;;;;;;;3.17;2.00;;;;;;;;;;5008367;28;20206;-55
2023/05/06 09:43:03;;;;;;;7.17;1.63;;;;;;;;;;5010511;28;20219;-56
2023/05/06 09:45:30;;;;;;;3.67;1.60;;;;;;;;;;5011125;28;20659;-56
2023/05/06 09:47:56;;;;;;;5.60;2.07;;;;;;;;;;5010990;28;20655;-57
2023/05/06 09:50:24;;;;;;;5.47;1.67;;;;;;;;;;5010715;28;20189;-55
2023/05/06 09:52:50;;;;;;;2.97;1.50;;;;;;;;;;5010395;28;20227;-57
2023/05/06 09:55:17;;;;;;;2.63;1.90;;;;;;;;;;5010781;28;20579;-56
2023/05/06 09:57:44;;;;;;;4.03;2.00;;;;;;;;;;5010429;28;20192;-57
2023/05/06 10:00:11;;;;;;;3.93;2.13;;;;;;;;;;4993284;28;20603;-55
2023/05/06 10:02:40;;;;;;;6.90;2.00;;;;;;;;;;5008985;28;20199;-56
2023/05/06 10:05:07;;;;;;;5.07;2.10;;;;;;;;;;5008920;28;20291;-57
2023/05/06 10:07:35;;;;;;;2.67;1.60;;;;;;;;;;5008926;28;20589;-56
2023/05/06 10:10:02;;;;;;;2.97;1.90;;;;;;;;;;5009425;28;20200;-55
2023/05/06 10:12:29;;;;;;;4.40;1.97;;;;;;;;;;5010223;28;20683;-56
2023/05/06 10:14:55;;;;;;;3.83;2.13;;;;;;;;;;5002512;28;20224;-55
2023/05/06 10:17:25;;;;;;;8.17;2.80;;;;;;;;;;4990132;28;20201;-55
2023/05/06 10:19:54;;;;;;;5.83;2.23;;;;;;;;;;4990541;28;20549;-56
2023/05/06 10:22:28;;;;;;;5.00;2.23;;;;;;;;;;5000431;28;21091;-56
2023/05/06 10:24:57;;;;;;;4.00;2.17;;;;;;;;;;5010069;28;20235;-56
2023/05/06 10:27:25;;;;;;;5.43;2.50;;;;;;;;;;4992848;28;20198;-57
2023/05/06 10:29:57;;;;;;;4.73;2.50;;;;;;;;;;4992717;28;20224;-57
2023/05/06 10:32:29;;;;;;;9.63;3.73;;;;;;;;;;5008836;28;20231;-66
2023/05/06 10:34:56;;;;;;;13.70;6.60;;;;;;;;;;5004773;28;20274;-67
2023/05/06 10:37:24;;;;;;;6.60;3.73;;;;;;;;;;5032115;28;20261;-65
2023/05/06 10:39:52;;;;;;;4.53;2.23;;;;;;;;;;5031750;28;20199;-67
2023/05/06 10:42:19;;;;;;;4.23;2.20;;;;;;;;;;5014179;28;20550;-67
2023/05/06 10:44:56;;;;;;;6.43;3.00;;;;;;;;;;5030957;28;20203;-67
2023/05/06 10:47:23;;;;;;;7.73;3.90;;;;;;;;;;5026209;28;20187;-67
2023/05/06 10:50:08;;;;;;;6.57;3.13;;;;;;;;;;5011956;28;20191;-67
2023/05/06 10:52:44;;;;;;;7.50;2.20;;;;;;;;;;5026313;28;20238;-67
2023/05/06 10:55:27;;;;;;;5.13;2.30;;;;;;;;;;5024418;28;20241;-67
2023/05/06 10:57:59;;;;;;;3.40;2.20;;;;;;;;;;5018691;28;20200;-67
2023/05/06 11:00:29;;;;;;;4.00;2.33;;;;;;;;;;5031713;28;20274;-67
2023/05/06 11:03:05;;;;;;;8.03;2.20;;;;;;;;;;5026171;28;20196;-67
2023/05/06 11:05:56;;;;;;;5.43;2.07;;;;;;;;;;5032151;28;20732;-67
2023/05/06 11:08:24;;;;;;;3.67;2.23;;;;;;;;;;5011143;28;20250;-67
2023/05/06 11:10:51;;;;;;;4.17;2.07;;;;;;;;;;5006481;28;20196;-67
2023/05/06 11:13:27;;;;;;;6.17;2.27;;;;;;;;;;5031543;28;20188;-67
2023/05/06 11:15:56;;;;;;;4.53;2.10;;;;;;;;;;5031936;28;20249;-67
2023/05/06 11:18:23;;;;;;;3.67;1.97;;;;;;;;;;5027926;28;20206;-67
2023/05/06 11:20:57;;;;;;;3.33;2.30;;;;;;;;;;5013540;28;20273;-67
2023/05/06 11:23:51;;;;;;;4.67;2.20;;;;;;;;;;5028520;28;20702;-66
2023/05/06 11:26:18;;;;;;;4.60;2.10;;;;;;;;;;5031402;28;20195;-67
2023/05/06 11:28:45;;;;;;;3.97;2.30;;;;;;;;;;5030871;28;20192;-66
2023/05/06 11:31:12;;;;;;;3.57;2.20;;;;;;;;;;5030900;28;20195;-67
2023/05/06 11:33:48;;;;;;;5.17;2.10;;;;;;;;;;5030638;28;20554;-67
2023/05/06 11:36:16;;;;;;;3.03;2.07;;;;;;;;;;5030942;28;20534;-68
2023/05/06 11:38:44;;;;;;;6.97;2.73;;;;;;;;;;5013317;28;20183;-66
2023/05/06 11:41:11;;;;;;;6.60;2.37;;;;;;;;;;5029374;28;20195;-66
2023/05/06 11:43:38;;;;;;;4.73;2.33;;;;;;;;;;5030680;28;20194;-67
2023/05/06 11:46:05;;;;;;;3.13;2.30;;;;;;;;;;5030601;28;20302;-66
2023/05/06 11:48:32;;;;;;;4.67;2.10;;;;;;;;;;5030586;28;20218;-67
2023/05/06 11:51:00;;;;;;;6.17;2.20;;;;;;;;;;5031406;28;20685;-67
2023/05/06 11:53:28;;;;;;;7.17;2.30;;;;;;;;;;5024299;28;20188;-66
2023/05/06 11:55:55;;;;;;;3.07;2.20;;;;;;;;;;5013762;28;20620;-67
2023/05/06 11:58:25;;;;;;;6.03;2.10;;;;;;;;;;5013741;28;20642;-67
2023/05/06 12:00:54;;;;;;;4.93;2.33;;;;;;;;;;5024912;28;20262;-67
2023/05/06 12:03:21;;;;;;;2.90;2.07;;;;;;;;;;5013096;28;20223;-67
2023/05/06 12:05:48;;;;;;;3.80;2.40;;;;;;;;;;5014125;28;20222;-67
2023/05/06 12:08:16;;;;;;;4.83;2.40;;;;;;;;;;5013509;28;20201;-67
2023/05/06 12:10:53;;;;;;;3.47;2.20;;;;;;;;;;5031181;28;20672;-66
2023/05/06 12:13:20;;;;;;;4.67;2.20;;;;;;;;;;5013415;28;20239;-67
2023/05/06 12:15:48;;;;;;;6.20;2.67;;;;;;;;;;5013368;28;20195;-67
2023/05/06 12:18:15;;;;;;;5.37;2.30;;;;;;;;;;5030500;28;20237;-66
2023/05/06 12:20:42;;;;;;;6.10;2.30;;;;;;;;;;5007848;28;20200;-67
2023/05/06 12:23:11;;;;;;;3.17;2.00;;;;;;;;;;5029203;28;20235;-66
2023/05/06 12:25:38;;;;;;;4.20;2.00;;;;;;;;;;5030410;28;20192;-67
2023/05/06 12:28:21;;;;;;;3.53;2.20;;;;;;;;;;5030657;28;20198;-67
2023/05/06 12:30:49;;;;;;;3.63;2.20;;;;;;;;;;5030848;28;20199;-67
2023/05/06 12:33:16;;;;;;;6.87;3.20;;;;;;;;;;5026432;28;20714;-67
2023/05/06 12:35:43;;;;;;;1053.03;386.70;;;;;;;;;;5030118;28;20644;-67
2023/05/06 12:38:10;;;;;;;9.00;3.70;;;;;;;;;;5012497;28;20682;-67
2023/05/06 12:40:37;;;;;;;5.77;2.33;;;;;;;;;;5012536;28;20183;-66
2023/05/06 12:43:04;;;;;;;9.13;6.10;;;;;;;;;;4994044;28;20183;-67
2023/05/06 12:45:31;;;;;;;9.63;3.97;;;;;;;;;;4994153;28;20200;-67
2023/05/06 12:47:58;;;;;;;6.57;2.90;;;;;;;;;;5023663;28;20273;-67
2023/05/06 12:50:31;;;;;;;5.37;3.00;;;;;;;;;;5007843;28;20693;-67
2023/05/06 12:52:58;;;;;;;3.93;2.60;;;;;;;;;;5007940;28;20721;-67
2023/05/06 12:55:24;;;;;;;6.53;2.90;;;;;;;;;;4990471;28;20224;-67
2023/05/06 12:57:51;;;;;;;7.40;4.50;;;;;;;;;;5008066;28;20195;-67
2023/05/06 13:00:18;;;;;;;6.43;2.60;;;;;;;;;;5007278;28;21012;-67
2023/05/06 13:02:45;;;;;;;7.97;4.93;;;;;;;;;;5010296;28;20274;-67
2023/05/06 13:05:13;;;;;;;7.13;3.90;;;;;;;;;;5026206;28;20188;-68
2023/05/06 13:07:40;;;;;;;7.47;3.00;;;;;;;;;;5030469;28;20188;-67
2023/05/06 13:10:07;;;;;;;4.20;2.30;;;;;;;;;;5031802;28;20245;-67
2023/05/06 13:12:34;;;;;;;5.17;2.53;;;;;;;;;;5038884;28;20694;-67
2023/05/06 13:15:03;;;;;;;5.43;2.10;;;;;;;;;;5016191;28;20271;-68
2023/05/06 13:17:31;;;;;;;6.03;2.90;;;;;;;;;;5043249;28;20539;-67
2023/05/06 13:20:00;;;;;;;9.17;3.87;;;;;;;;;;5027476;28;20196;-68
2023/05/06 13:22:33;;;;;;;5.53;2.57;;;;;;;;;;5045200;28;20740;-67
2023/05/06 13:25:19;;;;;;;7.17;2.50;;;;;;;;;;5031156;28;20289;-69
2023/05/06 13:27:45;;;;;;;4.87;2.33;;;;;;;;;;5005280;28;20219;-69
2023/05/06 13:30:12;;;;;;;4.00;2.07;;;;;;;;;;5016366;28;20687;-69
2023/05/06 13:32:39;;;;;;;7.37;2.70;;;;;;;;;;5033727;28;20663;-69
2023/05/06 13:35:06;;;;;;;7.10;2.93;;;;;;;;;;5014989;28;20195;-69
2023/05/06 13:37:33;;;;;;;5.67;2.43;;;;;;;;;;5032048;28;20274;-69
2023/05/06 13:40:00;;;;;;;4.40;2.47;;;;;;;;;;5033762;28;20206;-70
2023/05/06 13:42:27;;;;;;;5.17;2.30;;;;;;;;;;5032185;28;20191;-69
2023/05/06 13:44:54;;;;;;;6.87;2.33;;;;;;;;;;5032657;28;20219;-69
2023/05/06 13:47:21;;;;;;;6.17;2.40;;;;;;;;;;5015897;28;20194;-69
2023/05/06 13:49:48;;;;;;;7.50;2.80;;;;;;;;;;5014902;28;20419;-68
2023/05/06 13:52:15;;;;;;;5.10;2.53;;;;;;;;;;5030173;28;20215;-69
2023/05/06 13:54:42;;;;;;;3.53;2.00;;;;;;;;;;5030989;28;21797;-69
2023/05/06 13:57:09;;;;;;;6.20;2.63;;;;;;;;;;5014890;28;20269;-68
2023/05/06 13:59:37;;;;;;;9.73;5.10;;;;;;;;;;5032602;28;20194;-68
2023/05/06 14:02:04;;;;;;;6.40;4.03;;;;;;;;;;5011609;28;20222;-69
2023/05/06 14:04:36;;;;;;;5.67;3.23;;;;;;;;;;5020858;28;20200;-68
2023/05/06 14:07:03;;;;;;;5.43;3.37;;;;;;;;;;5020644;28;20664;-68
2023/05/06 14:09:30;;;;;;;5.07;2.50;;;;;;;;;;5027852;28;20194;-68
2023/05/06 14:11:58;;;;;;;5.07;2.63;;;;;;;;;;5031276;28;20577;-68
2023/05/06 14:14:26;;;;;;;3.00;2.20;;;;;;;;;;5037796;28;20210;-68
2023/05/06 14:16:54;;;;;;;10.23;4.80;;;;;;;;;;5038195;28;20189;-68
2023/05/06 14:19:26;;;;;;;15.80;7.23;;;;;;;;;;5033236;28;20213;-69
2023/05/06 14:21:54;;;;;;;11.23;4.23;;;;;;;;;;5042506;28;20653;-68
2023/05/06 14:24:21;;;;;;;3.60;2.40;;;;;;;;;;5032765;28;20194;-68
2023/05/06 14:26:48;;;;;;;7.80;4.40;;;;;;;;;;5035539;28;20200;-68
2023/05/06 14:29:15;;;;;;;7.83;3.10;;;;;;;;;;5012984;28;20198;-68
2023/05/06 14:31:42;;;;;;;4.77;2.20;;;;;;;;;;5047752;28;20190;-68
2023/05/06 14:34:10;;;;;;;8.73;2.50;;;;;;;;;;5040554;28;20582;-68
2023/05/06 14:36:36;;;;;;;5.00;2.30;;;;;;;;;;5033903;28;20684;-67
2023/05/06 14:39:03;;;;;;;5.37;2.50;;;;;;;;;;5032914;28;20206;-66
2023/05/06 14:41:31;;;;;;;22.50;8.90;;;;;;;;;;5042302;28;20638;-66
2023/05/06 14:43:59;;;;;;;5.43;2.47;;;;;;;;;;5043390;28;20198;-67
2023/05/06 14:46:26;;;;;;;5.73;2.57;;;;;;;;;;5040029;28;20191;-67
2023/05/06 14:48:55;;;;;;;5.20;2.80;;;;;;;;;;5032097;28;20215;-67
2023/05/06 14:51:22;;;;;;;5.13;2.83;;;;;;;;;;5039450;28;20613;-67
2023/05/06 14:53:49;;;;;;;7.37;2.40;;;;;;;;;;5013735;28;20224;-67
2023/05/06 14:56:16;;;;;;;9.70;4.73;;;;;;;;;;5039652;28;20278;-67
2023/05/06 14:58:43;;;;;;;12.00;6.50;;;;;;;;;;5028561;28;20183;-68
2023/05/06 15:01:09;;;;;;;7.70;4.60;;;;;;;;;;5031791;28;20183;-68
2023/05/06 15:03:38;;;;;;;5.03;2.23;;;;;;;;;;5042201;28;20194;-67
2023/05/06 15:06:05;;;;;;;3.53;1.60;;;;;;;;;;5011898;28;20233;-68
2023/05/06 15:08:32;;;;;;;5.73;2.30;;;;;;;;;;5034190;28;20199;-68
2023/05/06 15:11:02;;;;;;;4.67;2.33;;;;;;;;;;5037409;28;20180;-68
2023/05/06 15:13:30;;;;;;;5.13;1.90;;;;;;;;;;5034616;28;20697;-68
2023/05/06 15:15:57;;;;;;;4.23;1.93;;;;;;;;;;5033292;28;20223;-67
2023/05/06 15:18:24;;;;;;;4.67;2.37;;;;;;;;;;5028535;28;20191;-68
2023/05/06 15:20:53;;;;;;;7.13;2.53;;;;;;;;;;5046389;28;20197;-67
2023/05/06 15:23:21;;;;;;;5.83;2.33;;;;;;;;;;5013275;28;20226;-68
2023/05/06 15:25:48;;;;;;;4.93;2.10;;;;;;;;;;5007030;28;20192;-68